Time;durP1;ratioP1;P1;durP2;ratioP2;P2;SDS_P1;SDS_P2;PMS_P1;PMS_P2;Temp;Humidity;BMP_temperature;BMP_pressure;BME280_temperature;BME280_humidity;BME280_pressure;Samples;Min_cycle;Max_cycle;Signal;HPM_P1;HPM_P2
2022/07/05 00:02:10;;;;;;;1.58;1.48;;;23.60;55.80;;;;;;5083432;28;20093;-53
2022/07/05 00:04:35;;;;;;;1.75;1.30;;;23.60;55.90;;;;;;5084060;28;20509;-53
2022/07/05 00:07:19;;;;;;;1.65;1.30;;;23.60;55.80;;;;;;5083948;28;20492;-53
2022/07/05 00:09:52;;;;;;;2.30;1.30;;;23.60;55.80;;;;;;5081788;28;20119;-53
2022/07/05 00:12:18;;;;;;;3.72;1.55;;;23.60;55.80;;;;;;5081076;28;20040;-55
2022/07/05 00:14:43;;;;;;;1.17;1.08;;;23.60;55.90;;;;;;5082322;28;20627;-54
2022/07/05 00:17:09;;;;;;;3.10;1.40;;;23.60;55.90;;;;;;5083849;28;20482;-51
2022/07/05 00:19:35;;;;;;;1.48;1.15;;;23.60;55.80;;;;;;5082657;28;20056;-52
2022/07/05 00:22:00;;;;;;;3.10;1.25;;;23.60;55.90;;;;;;5084183;28;20532;-54
2022/07/05 00:24:26;;;;;;;2.15;1.08;;;23.60;55.80;;;;;;5083381;28;20044;-53
2022/07/05 00:26:52;;;;;;;2.20;1.08;;;23.60;55.80;;;;;;5083493;28;20135;-52
2022/07/05 00:29:17;;;;;;;1.80;1.17;;;23.60;55.70;;;;;;5083170;28;20070;-53
2022/07/05 00:31:42;;;;;;;2.63;1.20;;;23.60;55.80;;;;;;5083725;28;20020;-53
2022/07/05 00:34:08;;;;;;;2.13;1.20;;;23.60;55.50;;;;;;5083231;28;21341;-53
2022/07/05 00:36:33;;;;;;;1.13;1.02;;;23.50;55.70;;;;;;5083076;28;20028;-54
2022/07/05 00:38:59;;;;;;;1.23;1.13;;;23.50;55.60;;;;;;5082647;28;20023;-51
2022/07/05 00:41:37;;;;;;;5.70;1.15;;;23.50;55.50;;;;;;5081967;28;20035;-53
2022/07/05 00:44:24;;;;;;;1.40;1.27;;;23.60;55.70;;;;;;5083618;28;20042;-52
2022/07/05 00:46:50;;;;;;;2.13;1.30;;;23.50;55.60;;;;;;5065063;28;20507;-54
2022/07/05 00:49:15;;;;;;;1.42;1.02;;;23.60;55.70;;;;;;5082977;28;20055;-52
2022/07/05 00:51:41;;;;;;;2.70;1.20;;;23.50;55.50;;;;;;5083441;28;20046;-51
2022/07/05 00:54:07;;;;;;;2.92;1.23;;;23.50;55.50;;;;;;5081511;28;20106;-54
2022/07/05 00:56:32;;;;;;;2.75;1.40;;;23.50;55.50;;;;;;5081564;28;20107;-50
2022/07/05 00:58:58;;;;;;;3.38;1.40;;;23.50;55.40;;;;;;5081229;28;20035;-52
2022/07/05 01:01:23;;;;;;;3.13;1.13;;;23.50;55.40;;;;;;5082872;28;20032;-52
2022/07/05 01:03:49;;;;;;;1.65;1.20;;;23.50;55.40;;;;;;5083445;28;20024;-52
2022/07/05 01:06:14;;;;;;;3.20;1.10;;;23.50;55.00;;;;;;5082667;28;20353;-53
2022/07/05 01:08:42;;;;;;;1.38;1.02;;;23.50;55.30;;;;;;5082445;28;20448;-50
2022/07/05 01:11:09;;;;;;;1.60;1.23;;;23.40;55.10;;;;;;5081621;28;20032;-54
2022/07/05 01:13:35;;;;;;;1.30;0.80;;;23.40;55.50;;;;;;5083155;28;20036;-53
2022/07/05 01:16:01;;;;;;;1.27;0.93;;;23.40;55.10;;;;;;5077276;28;20244;-52
2022/07/05 01:18:26;;;;;;;1.65;1.10;;;23.40;55.10;;;;;;5062494;28;20566;-53
2022/07/05 01:20:52;;;;;;;1.67;1.10;;;23.40;55.10;;;;;;5045064;28;20163;-51
2022/07/05 01:23:18;;;;;;;1.40;0.90;;;23.40;54.90;;;;;;5063249;28;20517;-51
2022/07/05 01:25:44;;;;;;;3.35;1.27;;;23.40;55.10;;;;;;5062278;28;20028;-52
2022/07/05 01:28:09;;;;;;;3.22;1.20;;;23.40;55.20;;;;;;5062268;28;20464;-50
2022/07/05 01:30:35;;;;;;;2.03;1.02;;;23.40;55.10;;;;;;5063856;28;20020;-54
2022/07/05 01:33:01;;;;;;;2.20;1.02;;;23.40;54.80;;;;;;5066932;28;20110;-51
2022/07/05 01:35:27;;;;;;;1.55;1.30;;;23.40;54.80;;;;;;5065817;28;20563;-52
2022/07/05 01:37:52;;;;;;;3.08;1.13;;;23.40;54.90;;;;;;5066795;28;20024;-51
2022/07/05 01:40:18;;;;;;;2.42;1.10;;;23.40;55.10;;;;;;5067228;28;20036;-52
2022/07/05 01:42:44;;;;;;;1.00;0.90;;;23.40;54.90;;;;;;5066431;28;20021;-50
2022/07/05 01:45:10;;;;;;;2.05;1.00;;;23.30;54.70;;;;;;5066276;28;20035;-52
2022/07/05 01:47:36;;;;;;;1.38;1.00;;;23.40;54.80;;;;;;5066458;28;20016;-53
2022/07/05 01:50:02;;;;;;;2.30;1.20;;;23.40;54.70;;;;;;5064345;28;20159;-49
2022/07/05 01:52:28;;;;;;;1.48;0.88;;;23.30;54.70;;;;;;5064606;28;20544;-52
2022/07/05 01:54:53;;;;;;;1.27;1.05;;;23.30;54.70;;;;;;5065227;28;20036;-54
2022/07/05 01:57:19;;;;;;;2.30;1.20;;;23.30;54.70;;;;;;5065279;28;20040;-51
2022/07/05 01:59:44;;;;;;;1.52;1.17;;;23.30;54.50;;;;;;5044538;28;20040;-50
2022/07/05 02:02:10;;;;;;;2.13;1.00;;;23.30;54.60;;;;;;5046187;28;20029;-53
2022/07/05 02:04:36;;;;;;;1.10;1.00;;;23.30;54.60;;;;;;5063759;28;20040;-52
2022/07/05 02:07:08;;;;;;;1.02;0.82;;;23.30;54.40;;;;;;5066059;28;20040;-52
2022/07/05 02:09:33;;;;;;;1.15;0.88;;;23.30;54.40;;;;;;5065614;28;20064;-52
2022/07/05 02:11:59;;;;;;;2.78;1.00;;;23.30;54.20;;;;;;5065909;28;20114;-50
2022/07/05 02:14:25;;;;;;;1.40;0.85;;;23.30;54.40;;;;;;5065570;28;20653;-49
2022/07/05 02:16:50;;;;;;;2.35;0.88;;;23.30;54.50;;;;;;5066234;28;20052;-52
2022/07/05 02:19:16;;;;;;;1.45;0.95;;;23.30;54.30;;;;;;5065914;28;20514;-51
2022/07/05 02:21:41;;;;;;;0.82;0.80;;;23.20;54.40;;;;;;5066005;28;20035;-54
2022/07/05 02:24:07;;;;;;;1.52;1.33;;;23.20;53.70;;;;;;5065985;28;20033;-53
2022/07/05 02:26:32;;;;;;;1.30;0.82;;;23.20;54.00;;;;;;5065570;28;20025;-50
2022/07/05 02:28:58;;;;;;;1.13;0.70;;;23.20;54.30;;;;;;5064852;28;20411;-53
2022/07/05 02:31:23;;;;;;;2.05;1.00;;;23.10;54.20;;;;;;5065885;28;20040;-53
2022/07/05 02:33:49;;;;;;;1.75;0.80;;;23.10;54.30;;;;;;5065973;28;20059;-52
2022/07/05 02:36:15;;;;;;;0.75;0.75;;;23.20;54.20;;;;;;5065158;28;20028;-55
2022/07/05 02:38:41;;;;;;;2.20;0.82;;;23.20;54.40;;;;;;5064926;28;20040;-51
2022/07/05 02:41:10;;;;;;;2.13;1.20;;;23.20;54.20;;;;;;5063929;28;20513;-54
2022/07/05 02:43:36;;;;;;;2.63;1.00;;;23.20;54.30;;;;;;5069417;28;20498;-54
2022/07/05 02:46:02;;;;;;;2.70;0.88;;;23.20;54.20;;;;;;5086214;28;20032;-56
2022/07/05 02:48:27;;;;;;;2.85;1.00;;;23.10;53.80;;;;;;5085821;28;20115;-53
2022/07/05 02:50:53;;;;;;;1.20;0.88;;;23.10;54.10;;;;;;5085772;28;20162;-52
2022/07/05 02:53:18;;;;;;;1.67;1.05;;;23.10;53.90;;;;;;5086480;28;20032;-53
2022/07/05 02:55:44;;;;;;;1.27;0.80;;;23.10;54.00;;;;;;5085852;28;20044;-52
2022/07/05 02:58:09;;;;;;;2.67;1.20;;;23.10;54.10;;;;;;5085942;28;20115;-53
2022/07/05 03:00:35;;;;;;;1.38;1.17;;;23.00;53.90;;;;;;5085069;28;20472;-52
2022/07/05 03:03:00;;;;;;;0.82;0.80;;;23.00;53.80;;;;;;5085972;28;20029;-55
2022/07/05 03:05:26;;;;;;;2.75;1.02;;;23.00;53.90;;;;;;5084797;28;20031;-50
2022/07/05 03:07:51;;;;;;;1.45;1.00;;;23.00;54.00;;;;;;5085848;28;20529;-52
2022/07/05 03:10:17;;;;;;;3.75;1.60;;;23.00;54.20;;;;;;5084753;28;20109;-51
2022/07/05 03:12:42;;;;;;;0.88;0.88;;;23.00;53.90;;;;;;5085396;28;20166;-51
2022/07/05 03:15:08;;;;;;;3.13;1.02;;;23.00;54.20;;;;;;5084375;28;20032;-53
2022/07/05 03:17:34;;;;;;;3.05;1.30;;;23.00;54.30;;;;;;5085162;28;20032;-51
2022/07/05 03:19:59;;;;;;;4.03;1.40;;;23.00;54.00;;;;;;5083737;28;20023;-55
2022/07/05 03:22:25;;;;;;;1.88;1.23;;;23.00;53.60;;;;;;5085402;28;20721;-51
2022/07/05 03:24:50;;;;;;;1.67;1.13;;;22.90;53.70;;;;;;5085802;28;20035;-47
2022/07/05 03:27:15;;;;;;;1.70;0.98;;;23.00;54.20;;;;;;5086383;28;20028;-54
2022/07/05 03:29:41;;;;;;;2.78;1.15;;;23.00;54.20;;;;;;5085548;28;20395;-52
2022/07/05 03:32:07;;;;;;;2.25;1.25;;;23.00;53.90;;;;;;5074308;28;20060;-55
2022/07/05 03:34:32;;;;;;;2.75;1.10;;;22.90;53.60;;;;;;5069780;28;20124;-54
2022/07/05 03:36:58;;;;;;;4.03;1.25;;;23.00;54.10;;;;;;5086010;28;20020;-54
2022/07/05 03:39:23;;;;;;;2.67;1.27;;;23.00;53.40;;;;;;5084400;28;20502;-55
2022/07/05 03:41:49;;;;;;;7.80;1.48;;;22.90;53.00;;;;;;5085358;28;20043;-51
2022/07/05 03:44:14;;;;;;;4.63;1.40;;;22.90;53.20;;;;;;5084727;28;20119;-54
2022/07/05 03:46:40;;;;;;;1.17;1.05;;;22.80;53.10;;;;;;5083713;28;20528;-52
2022/07/05 03:49:05;;;;;;;6.60;1.40;;;22.50;52.20;;;;;;5082028;28;20036;-53
2022/07/05 03:51:31;;;;;;;4.43;1.30;;;22.40;52.20;;;;;;5083731;28;20028;-53
2022/07/05 03:53:56;;;;;;;7.53;1.52;;;22.20;52.10;;;;;;5081748;28;20043;-50
2022/07/05 03:56:22;;;;;;;5.68;1.77;;;22.20;51.90;;;;;;5083446;28;20554;-51
2022/07/05 03:58:49;;;;;;;2.95;1.52;;;22.10;51.90;;;;;;5083237;28;20097;-56
2022/07/05 04:01:14;;;;;;;8.75;1.60;;;22.10;51.90;;;;;;5083347;28;20051;-53
2022/07/05 04:03:40;;;;;;;2.40;1.13;;;22.00;51.80;;;;;;5083636;28;21477;-53
2022/07/05 04:06:05;;;;;;;2.88;1.35;;;21.90;51.60;;;;;;5059602;28;20028;-56
2022/07/05 04:08:31;;;;;;;5.93;1.50;;;21.90;51.90;;;;;;5062449;28;20294;-55
2022/07/05 04:10:56;;;;;;;3.70;1.25;;;21.90;51.80;;;;;;5063871;28;20094;-55
2022/07/05 04:13:22;;;;;;;4.95;1.42;;;21.90;52.10;;;;;;5063412;28;20486;-53
2022/07/05 04:15:48;;;;;;;7.55;1.40;;;21.80;52.40;;;;;;5064019;28;20033;-53
2022/07/05 04:18:13;;;;;;;5.55;1.55;;;21.80;52.50;;;;;;5063075;28;20105;-54
2022/07/05 04:20:39;;;;;;;2.40;1.30;;;21.80;52.50;;;;;;5063308;28;20761;-56
2022/07/05 04:23:04;;;;;;;4.30;1.60;;;21.80;52.50;;;;;;5063395;28;20028;-56
2022/07/05 04:25:30;;;;;;;2.88;1.30;;;21.80;52.90;;;;;;5063881;28;20083;-59
2022/07/05 04:27:55;;;;;;;2.95;1.10;;;21.80;52.80;;;;;;5062836;28;20044;-56
2022/07/05 04:30:23;;;;;;;1.88;1.48;;;21.80;53.00;;;;;;5062243;28;20086;-56
2022/07/05 04:32:48;;;;;;;3.17;1.25;;;21.70;53.30;;;;;;5064410;28;20031;-59
2022/07/05 04:35:14;;;;;;;18.27;3.42;;;21.80;53.30;;;;;;5063776;28;20024;-53
2022/07/05 04:37:39;;;;;;;18.27;2.92;;;21.90;54.10;;;;;;5062890;28;20047;-57
2022/07/05 04:40:05;;;;;;;28.02;3.53;;;21.90;54.30;;;;;;5061669;28;20198;-56
2022/07/05 04:42:31;;;;;;;17.92;3.53;;;22.00;53.90;;;;;;5062504;28;20439;-54
2022/07/05 04:44:57;;;;;;;21.40;4.18;;;22.00;53.60;;;;;;5063442;28;20063;-56
2022/07/05 04:47:22;;;;;;;16.75;4.18;;;22.10;53.80;;;;;;5063006;28;20021;-56
2022/07/05 04:49:48;;;;;;;21.67;3.65;;;22.20;53.70;;;;;;5062587;28;20020;-57
2022/07/05 04:54:47;;;;;;;18.80;3.53;;;22.30;54.00;;;;;;5080617;28;20430;-56
2022/07/05 04:57:12;;;;;;;16.70;2.97;;;22.30;53.90;;;;;;5083020;28;20213;-56
2022/07/05 04:59:38;;;;;;;15.27;2.92;;;22.30;54.00;;;;;;5082141;28;20020;-56
2022/07/05 05:02:04;;;;;;;11.30;2.92;;;22.40;54.00;;;;;;5082382;28;20074;-57
2022/07/05 05:04:29;;;;;;;10.38;2.63;;;22.40;54.10;;;;;;5082428;28;20031;-56
2022/07/05 05:06:54;;;;;;;11.57;3.08;;;22.50;54.20;;;;;;5070398;28;20112;-54
2022/07/05 05:09:20;;;;;;;7.03;1.73;;;22.50;54.30;;;;;;5062301;28;20040;-56
2022/07/05 05:11:46;;;;;;;8.50;2.15;;;22.60;54.20;;;;;;5072074;28;20081;-57
2022/07/05 05:14:12;;;;;;;10.57;1.92;;;22.60;54.20;;;;;;5082019;28;20032;-56
2022/07/05 05:16:37;;;;;;;9.02;1.75;;;22.60;54.20;;;;;;5074635;28;20571;-56
2022/07/05 05:19:03;;;;;;;7.45;1.67;;;22.60;54.20;;;;;;5060412;28;20037;-56
2022/07/05 05:21:28;;;;;;;7.85;1.70;;;22.60;54.20;;;;;;5068566;28;20035;-57
2022/07/05 05:23:54;;;;;;;5.43;2.13;;;22.70;54.20;;;;;;5069695;28;20033;-57
2022/07/05 05:26:19;;;;;;;5.05;1.42;;;22.60;54.60;;;;;;5056494;28;20569;-58
2022/07/05 05:28:45;;;;;;;8.95;2.00;;;22.60;54.50;;;;;;5080199;28;20506;-58
2022/07/05 05:31:10;;;;;;;6.43;1.65;;;22.60;54.20;;;;;;5082955;28;20126;-56
2022/07/05 05:33:36;;;;;;;7.68;1.73;;;22.60;54.20;;;;;;5068290;28;20051;-53
2022/07/05 05:36:02;;;;;;;13.35;2.20;;;22.70;54.20;;;;;;5057864;28;20024;-56
2022/07/05 05:38:27;;;;;;;10.73;2.03;;;22.70;54.00;;;;;;5080795;28;20104;-54
2022/07/05 05:40:53;;;;;;;8.50;2.40;;;22.70;53.80;;;;;;5077807;28;20060;-57
2022/07/05 05:43:18;;;;;;;9.18;1.70;;;22.70;53.80;;;;;;5065273;28;20486;-53
2022/07/05 05:45:44;;;;;;;9.90;2.17;;;22.70;53.80;;;;;;5082635;28;20032;-53
2022/07/05 05:48:09;;;;;;;8.48;1.58;;;22.70;53.60;;;;;;5082469;28;20081;-56
2022/07/05 05:50:37;;;;;;;4.63;1.65;;;22.70;53.60;;;;;;5076418;28;20407;-56
2022/07/05 05:53:02;;;;;;;4.13;1.50;;;22.70;53.60;;;;;;5045234;28;20070;-53
2022/07/05 05:55:29;;;;;;;13.18;1.50;;;22.70;53.60;;;;;;5062760;28;20028;-58
2022/07/05 05:57:54;;;;;;;5.65;1.42;;;22.70;53.50;;;;;;5075631;28;20024;-57
2022/07/05 06:00:20;;;;;;;6.05;1.20;;;22.70;54.00;;;;;;5082632;28;20028;-55
2022/07/05 06:02:46;;;;;;;5.72;1.58;;;22.70;53.30;;;;;;5071506;28;20051;-56
2022/07/05 06:05:12;;;;;;;4.28;1.55;;;22.70;53.30;;;;;;5062091;28;20127;-57
2022/07/05 06:07:51;;;;;;;5.93;1.60;;;22.70;53.60;;;;;;5064791;28;20465;-56
2022/07/05 06:10:28;;;;;;;7.28;1.83;;;22.70;53.60;;;;;;5081692;28;20028;-56
2022/07/05 06:12:54;;;;;;;10.25;1.52;;;22.70;53.60;;;;;;5047364;28;20501;-57
2022/07/05 06:15:20;;;;;;;10.27;1.73;;;22.70;53.50;;;;;;5065113;28;20031;-57
2022/07/05 06:17:46;;;;;;;7.28;1.75;;;22.80;53.30;;;;;;5063881;28;20029;-57
2022/07/05 06:20:21;;;;;;;5.50;1.48;;;22.70;53.20;;;;;;5063859;28;20032;-56
2022/07/05 06:22:47;;;;;;;5.40;1.20;;;22.70;53.10;;;;;;5068437;28;20036;-55
2022/07/05 06:25:13;;;;;;;5.03;1.27;;;22.70;52.80;;;;;;5068165;28;20025;-54
2022/07/05 06:27:45;;;;;;;7.63;1.25;;;22.80;52.80;;;;;;5068072;28;20103;-56
2022/07/05 06:30:12;;;;;;;4.32;2.00;;;22.70;52.80;;;;;;5084924;28;20028;-53
2022/07/05 06:32:38;;;;;;;6.47;1.25;;;22.70;52.90;;;;;;5079896;28;20028;-57
2022/07/05 06:35:03;;;;;;;3.25;1.27;;;22.70;53.20;;;;;;5064578;28;20060;-54
2022/07/05 06:38:00;;;;;;;6.65;1.00;;;22.70;54.00;;;;;;5069775;28;20024;-56
2022/07/05 06:40:27;;;;;;;6.97;1.17;;;22.70;53.50;;;;;;5084692;28;20410;-53
2022/07/05 06:42:53;;;;;;;4.25;1.52;;;22.70;53.30;;;;;;5068179;28;20052;-53
2022/07/05 06:45:19;;;;;;;5.38;1.20;;;22.70;53.20;;;;;;5068265;28;20020;-56
2022/07/05 06:47:45;;;;;;;3.25;1.13;;;22.70;53.10;;;;;;5067780;28;20509;-54
2022/07/05 06:50:10;;;;;;;3.53;1.20;;;22.70;52.70;;;;;;5084965;28;20043;-58
2022/07/05 06:52:36;;;;;;;4.55;1.15;;;22.70;52.80;;;;;;5064293;28;20025;-57
2022/07/05 06:55:02;;;;;;;3.55;1.30;;;22.70;52.60;;;;;;5058197;28;20075;-53
2022/07/05 06:57:27;;;;;;;4.47;1.30;;;22.70;52.40;;;;;;5080003;28;20463;-56
2022/07/05 06:59:53;;;;;;;3.35;1.38;;;22.70;52.30;;;;;;5062047;28;20521;-55
2022/07/05 07:02:19;;;;;;;3.17;1.13;;;22.70;52.30;;;;;;5099801;28;20032;-56
2022/07/05 07:04:45;;;;;;;2.35;1.27;;;22.70;52.30;;;;;;5068270;28;20024;-55
2022/07/05 07:10:01;;;;;;;3.70;1.00;;;22.70;52.20;;;;;;5070177;28;20035;-53
2022/07/05 07:12:26;;;;;;;4.43;1.77;;;22.70;52.30;;;;;;5085756;28;20028;-55
2022/07/05 07:14:52;;;;;;;5.15;1.35;;;22.70;51.40;;;;;;5085814;28;20032;-64
2022/07/05 07:17:17;;;;;;;5.15;1.08;;;22.70;52.20;;;;;;5086455;28;20313;-56
2022/07/05 07:19:43;;;;;;;2.13;1.20;;;22.60;50.70;;;;;;5068560;28;20514;-53
2022/07/05 07:22:08;;;;;;;1.90;1.13;;;22.60;51.70;;;;;;5065682;28;20752;-53
2022/07/05 07:24:34;;;;;;;9.55;1.90;;;22.60;50.30;;;;;;5080444;28;20039;-55
2022/07/05 07:27:02;;;;;;;5.88;1.42;;;22.50;51.20;;;;;;5085426;28;20024;-58
2022/07/05 07:29:28;;;;;;;6.32;1.92;;;22.60;51.50;;;;;;5071759;28;20025;-55
2022/07/05 07:31:53;;;;;;;3.28;1.33;;;22.60;50.10;;;;;;5064480;28;20035;-56
2022/07/05 07:34:19;;;;;;;4.00;1.17;;;22.60;51.60;;;;;;5077211;28;20034;-56
2022/07/05 07:36:44;;;;;;;8.25;1.55;;;22.70;51.50;;;;;;5085742;28;20036;-56
2022/07/05 07:39:10;;;;;;;2.95;1.40;;;22.60;50.60;;;;;;5074915;28;20035;-58
2022/07/05 07:41:36;;;;;;;3.63;1.20;;;22.60;52.90;;;;;;5065510;28;20111;-56
2022/07/05 07:44:01;;;;;;;6.90;1.42;;;22.60;52.40;;;;;;5073117;28;20733;-56
2022/07/05 07:46:27;;;;;;;7.95;1.40;;;22.60;52.60;;;;;;5085541;28;20051;-56
2022/07/05 07:48:53;;;;;;;4.13;1.20;;;22.70;52.80;;;;;;5078861;28;20028;-56
2022/07/05 07:51:21;;;;;;;3.65;1.08;;;22.70;52.80;;;;;;5065659;28;20028;-56
2022/07/05 07:53:46;;;;;;;4.75;1.10;;;22.70;52.40;;;;;;5069062;28;20689;-54
2022/07/05 07:56:12;;;;;;;3.50;1.08;;;22.70;52.10;;;;;;5085290;28;20036;-56
2022/07/05 07:58:37;;;;;;;5.35;1.55;;;22.70;52.00;;;;;;5081977;28;20025;-58
2022/07/05 08:01:04;;;;;;;3.55;1.33;;;22.70;52.20;;;;;;5064971;28;20484;-56
2022/07/05 08:03:29;;;;;;;4.25;1.38;;;22.60;51.30;;;;;;5065050;28;20373;-58
2022/07/05 08:05:55;;;;;;;4.13;1.25;;;22.70;50.80;;;;;;5084437;28;20024;-56
2022/07/05 08:08:20;;;;;;;11.48;1.52;;;22.70;51.90;;;;;;5084993;28;20021;-57
2022/07/05 08:10:46;;;;;;;4.95;1.50;;;22.70;51.90;;;;;;5065111;28;20369;-58
2022/07/05 08:13:11;;;;;;;7.40;1.40;;;22.70;51.70;;;;;;5064516;28;20040;-56
2022/07/05 08:15:37;;;;;;;7.32;1.52;;;22.70;52.00;;;;;;5081251;28;20067;-57
2022/07/05 08:23:31;;;;;;;9.50;1.55;;;22.60;51.50;;;;;;5065333;28;20028;-58
2022/07/05 08:25:56;;;;;;;7.45;1.70;;;22.70;51.70;;;;;;5064872;28;20020;-56
2022/07/05 08:28:22;;;;;;;3.83;0.98;;;22.70;51.80;;;;;;5085435;28;20032;-57
2022/07/05 08:30:47;;;;;;;3.45;0.95;;;22.60;49.70;;;;;;5068684;28;20025;-57
2022/07/05 08:33:13;;;;;;;4.10;1.25;;;22.60;51.20;;;;;;5063722;28;20028;-56
2022/07/05 08:35:38;;;;;;;3.97;1.13;;;22.70;50.40;;;;;;5079438;28;20021;-57
2022/07/05 08:38:05;;;;;;;2.83;0.98;;;22.70;49.30;;;;;;5084534;28;20051;-56
2022/07/05 08:40:31;;;;;;;2.78;1.08;;;22.70;51.30;;;;;;5072017;28;20020;-55
2022/07/05 08:42:56;;;;;;;4.43;1.38;;;22.70;51.10;;;;;;5063695;28;20020;-58
2022/07/05 08:45:22;;;;;;;5.03;1.33;;;22.70;51.20;;;;;;5067168;28;20035;-57
2022/07/05 08:47:48;;;;;;;3.58;1.00;;;22.70;48.60;;;;;;5065941;28;20081;-56
2022/07/05 08:50:15;;;;;;;3.30;1.05;;;22.60;49.00;;;;;;5046684;28;20028;-56
2022/07/05 08:52:40;;;;;;;2.50;1.10;;;22.70;50.40;;;;;;5063215;28;20414;-58
2022/07/05 08:55:06;;;;;;;3.13;1.08;;;22.70;49.20;;;;;;5067158;28;20031;-57
2022/07/05 08:57:31;;;;;;;2.50;0.73;;;22.70;50.30;;;;;;5066926;28;20032;-55
2022/07/05 08:59:57;;;;;;;5.43;1.15;;;22.70;50.30;;;;;;5079175;28;20021;-57
2022/07/05 09:02:23;;;;;;;4.72;1.30;;;22.70;51.00;;;;;;5064346;28;20029;-59
2022/07/05 09:04:48;;;;;;;3.85;1.42;;;22.70;50.70;;;;;;5066615;28;20394;-57
2022/07/05 09:07:16;;;;;;;4.53;1.40;;;22.70;49.90;;;;;;5065326;28;20020;-57
2022/07/05 09:09:43;;;;;;;4.50;0.95;;;22.70;49.70;;;;;;5081811;28;20054;-53
2022/07/05 09:12:08;;;;;;;4.70;1.02;;;22.70;50.40;;;;;;5062556;28;20048;-57
2022/07/05 09:14:34;;;;;;;3.25;1.05;;;22.70;49.10;;;;;;5064453;28;20052;-55
2022/07/05 09:17:00;;;;;;;3.40;1.20;;;22.70;50.40;;;;;;5082538;28;20036;-57
2022/07/05 09:19:25;;;;;;;5.13;1.45;;;22.80;50.40;;;;;;5082961;28;20090;-57
2022/07/05 09:22:02;;;;;;;2.47;1.00;;;22.70;50.40;;;;;;5066644;28;20450;-57
2022/07/05 09:24:28;;;;;;;2.00;1.08;;;22.70;50.80;;;;;;5062621;28;20025;-56
2022/07/05 09:26:53;;;;;;;3.28;1.00;;;22.80;51.00;;;;;;5081550;28;20028;-58
2022/07/05 09:29:20;;;;;;;3.03;1.00;;;22.70;51.10;;;;;;5065851;28;20023;-58
2022/07/05 09:31:49;;;;;;;7.85;2.42;;;22.80;51.20;;;;;;5068392;28;20029;-57
2022/07/05 09:34:15;;;;;;;9.15;1.58;;;22.70;52.10;;;;;;5063679;28;20035;-58
2022/07/05 09:36:50;;;;;;;10.00;1.35;;;22.60;51.40;;;;;;5078054;28;20024;-57
2022/07/05 09:39:16;;;;;;;6.00;1.30;;;22.70;50.40;;;;;;5082439;28;20032;-56
2022/07/05 09:41:41;;;;;;;7.00;1.17;;;22.70;50.40;;;;;;5065603;28;20035;-56
2022/07/05 09:44:07;;;;;;;3.35;1.08;;;22.70;48.90;;;;;;5065260;28;20527;-56
2022/07/05 09:46:33;;;;;;;6.82;1.45;;;22.70;48.70;;;;;;5062352;28;20037;-55
2022/07/05 09:48:58;;;;;;;3.97;1.40;;;22.70;49.40;;;;;;5063014;28;20044;-57
2022/07/05 09:51:24;;;;;;;6.07;1.10;;;22.70;49.30;;;;;;5073068;28;20036;-56
2022/07/05 09:53:54;;;;;;;2.75;1.25;;;22.70;48.70;;;;;;5069769;28;20040;-57
2022/07/05 09:56:20;;;;;;;1.15;0.90;;;22.70;49.30;;;;;;5087595;28;20028;-56
2022/07/05 09:58:46;;;;;;;4.18;1.38;;;22.70;49.00;;;;;;5068552;28;20028;-58
2022/07/05 10:01:27;;;;;;;2.67;1.00;;;22.70;49.50;;;;;;5080034;28;20029;-58
2022/07/05 10:03:57;;;;;;;3.08;1.13;;;22.70;49.00;;;;;;5067131;28;20029;-55
2022/07/05 10:06:23;;;;;;;3.60;0.95;;;22.80;49.30;;;;;;5074817;28;20031;-58
2022/07/05 10:08:51;;;;;;;5.28;1.02;;;22.80;49.60;;;;;;5086867;28;20047;-56
2022/07/05 10:11:18;;;;;;;4.18;1.00;;;22.80;49.30;;;;;;5069272;28;20033;-55
2022/07/05 10:13:45;;;;;;;3.72;0.88;;;22.80;49.50;;;;;;5069590;28;20040;-56
2022/07/05 10:16:11;;;;;;;3.55;1.08;;;22.80;48.90;;;;;;5068970;28;20036;-57
2022/07/05 10:18:36;;;;;;;1.88;0.77;;;22.80;49.30;;;;;;5068699;28;20036;-57
2022/07/05 10:21:02;;;;;;;3.60;1.15;;;22.80;48.80;;;;;;5084600;28;20024;-57
2022/07/05 10:23:28;;;;;;;2.72;0.82;;;22.80;49.20;;;;;;5067614;28;20029;-56
2022/07/05 10:25:53;;;;;;;1.30;1.02;;;22.80;48.70;;;;;;5065608;28;20047;-58
2022/07/05 10:28:20;;;;;;;6.35;1.02;;;22.80;49.60;;;;;;5047933;28;20790;-57
2022/07/05 10:30:46;;;;;;;6.03;1.00;;;22.80;49.20;;;;;;5048229;28;20024;-54
2022/07/05 10:33:14;;;;;;;4.30;0.98;;;22.80;49.70;;;;;;5067860;28;20127;-58
2022/07/05 10:35:43;;;;;;;3.35;1.08;;;22.80;47.70;;;;;;5069148;28;20024;-57
2022/07/05 10:38:09;;;;;;;2.83;1.30;;;22.80;48.70;;;;;;5051216;28;20035;-58
2022/07/05 10:40:34;;;;;;;2.72;0.70;;;22.80;49.50;;;;;;5067972;28;20025;-54
2022/07/05 10:43:01;;;;;;;4.43;0.80;;;22.90;49.20;;;;;;5064326;28;20013;-54
2022/07/05 10:45:36;;;;;;;3.15;0.80;;;22.90;49.20;;;;;;5065328;28;20028;-56
2022/07/05 10:48:12;;;;;;;3.08;0.93;;;22.90;49.40;;;;;;5067569;28;20028;-56
2022/07/05 10:50:50;;;;;;;2.25;1.10;;;22.90;49.70;;;;;;5085223;28;20560;-57
2022/07/05 10:53:36;;;;;;;5.60;1.38;;;22.90;49.50;;;;;;5068263;28;20056;-56
2022/07/05 10:56:05;;;;;;;3.15;1.10;;;22.90;49.80;;;;;;5057292;28;20285;-55
2022/07/05 10:58:40;;;;;;;2.47;0.80;;;22.90;49.90;;;;;;5083712;28;20028;-57
2022/07/05 11:01:12;;;;;;;;;;;22.90;49.70;;;;;;5085812;28;20704;-55
2022/07/05 11:03:42;;;;;;;1.05;0.80;;;22.90;49.90;;;;;;5067136;28;19908;-57
2022/07/05 11:06:10;;;;;;;1.77;0.73;;;22.90;49.90;;;;;;5067276;28;20691;-55
2022/07/05 11:08:55;;;;;;;5.15;1.10;;;22.90;49.80;;;;;;5085466;28;20565;-53
2022/07/05 11:11:24;;;;;;;2.10;1.17;;;22.90;49.80;;;;;;5085252;28;20097;-56
2022/07/05 11:13:49;;;;;;;2.05;0.80;;;22.90;49.10;;;;;;5067566;28;20700;-55
2022/07/05 11:16:25;;;;;;;2.10;1.08;;;22.90;49.40;;;;;;5064877;28;20029;-58
2022/07/05 11:18:52;;;;;;;2.85;0.88;;;22.90;49.50;;;;;;5067492;28;20120;-54
2022/07/05 11:21:19;;;;;;;2.45;1.15;;;22.90;49.50;;;;;;5068061;28;20049;-58
2022/07/05 11:23:44;;;;;;;3.53;1.08;;;22.90;49.00;;;;;;5067796;28;20036;-57
2022/07/05 11:26:11;;;;;;;2.03;1.02;;;23.00;49.00;;;;;;5085683;28;20031;-58
2022/07/05 11:28:47;;;;;;;2.17;1.10;;;23.00;49.40;;;;;;5066907;28;20028;-57
2022/07/05 11:31:13;;;;;;;3.78;1.33;;;23.00;47.00;;;;;;5067891;28;20032;-58
2022/07/05 11:33:43;;;;;;;3.28;1.20;;;23.00;49.10;;;;;;5067591;28;20491;-56
2022/07/05 11:36:22;;;;;;;3.42;1.40;;;23.00;48.00;;;;;;5067856;28;20032;-59
2022/07/05 11:39:16;;;;;;;1.42;1.20;;;23.00;49.00;;;;;;5063820;28;20237;-55
2022/07/05 11:41:45;;;;;;;2.88;1.00;;;23.00;48.30;;;;;;5064088;28;20055;-58
2022/07/05 11:44:11;;;;;;;3.08;1.27;;;23.00;47.70;;;;;;5082893;28;20029;-55
2022/07/05 11:46:37;;;;;;;3.17;1.17;;;23.00;47.90;;;;;;5085693;28;20026;-57
2022/07/05 11:49:03;;;;;;;1.27;0.70;;;23.00;46.60;;;;;;5084425;28;20036;-57
2022/07/05 11:51:28;;;;;;;2.83;1.30;;;23.00;47.90;;;;;;5067274;28;20035;-57
2022/07/05 11:53:54;;;;;;;4.00;1.10;;;23.00;48.20;;;;;;5071830;28;20043;-56
2022/07/05 11:56:19;;;;;;;3.33;1.15;;;23.00;48.50;;;;;;5064666;28;20376;-54
2022/07/05 11:58:45;;;;;;;6.45;1.60;;;23.00;48.80;;;;;;5076953;28;20032;-57
2022/07/05 12:01:10;;;;;;;2.95;1.70;;;23.00;48.20;;;;;;5085530;28;20039;-56
2022/07/05 12:03:36;;;;;;;3.10;1.33;;;23.00;48.20;;;;;;5075636;28;20074;-54
2022/07/05 12:06:15;;;;;;;1.52;1.02;;;23.00;48.10;;;;;;5065032;28;20513;-57
2022/07/05 12:08:41;;;;;;;1.35;1.00;;;23.00;48.50;;;;;;5066815;28;20372;-57
2022/07/05 12:13:53;;;;;;;1.70;0.93;;;23.00;48.60;;;;;;5073281;28;20531;-58
2022/07/05 12:16:19;;;;;;;1.85;0.95;;;23.00;48.20;;;;;;5065190;28;20036;-57
2022/07/05 12:18:52;;;;;;;2.38;1.25;;;23.00;48.10;;;;;;5066108;28;20032;-57
2022/07/05 12:21:20;;;;;;;2.45;1.00;;;23.00;48.30;;;;;;5084624;28;20498;-58
2022/07/05 12:23:45;;;;;;;3.17;1.23;;;23.00;48.50;;;;;;5067570;28;20392;-55
2022/07/05 12:26:12;;;;;;;3.28;1.27;;;23.10;46.20;;;;;;5084477;28;20115;-56
2022/07/05 12:28:38;;;;;;;1.33;0.95;;;23.10;46.80;;;;;;5062238;28;20036;-58
2022/07/05 12:31:24;;;;;;;2.53;1.20;;;23.10;47.40;;;;;;5063061;28;20143;-57
2022/07/05 12:33:51;;;;;;;2.55;1.27;;;23.10;47.10;;;;;;5066685;28;20042;-56
2022/07/05 12:36:19;;;;;;;1.70;0.93;;;23.10;46.30;;;;;;5066359;28;20024;-57
2022/07/05 12:38:44;;;;;;;2.28;1.27;;;23.10;47.60;;;;;;5062449;28;20540;-55
2022/07/05 12:41:10;;;;;;;4.15;1.17;;;23.10;47.70;;;;;;5062389;28;20041;-57
2022/07/05 12:43:49;;;;;;;5.70;1.30;;;23.10;48.60;;;;;;5049447;28;20275;-56
2022/07/05 12:46:14;;;;;;;2.25;1.27;;;23.10;47.50;;;;;;5084067;28;20085;-55
2022/07/05 12:48:40;;;;;;;3.22;1.00;;;23.10;47.20;;;;;;5062219;28;20020;-58
2022/07/05 12:51:06;;;;;;;5.30;1.30;;;23.10;46.20;;;;;;5064355;28;20492;-57
2022/07/05 12:59:02;;;;;;;2.38;1.45;;;23.10;47.90;;;;;;5067731;28;20063;-58
2022/07/05 13:01:28;;;;;;;4.28;1.30;;;23.20;48.10;;;;;;5083990;28;20099;-58
2022/07/05 13:04:05;;;;;;;7.03;1.40;;;23.20;47.40;;;;;;5066196;28;20494;-58